createdAt,value
2016-06-15T00:00:34.799Z,13.9
2016-06-15T00:03:48.653Z,13.8
2016-06-15T00:07:02.931Z,13.8
2016-06-15T00:10:16.816Z,13.8
2016-06-15T00:13:28.496Z,13.7
2016-06-15T00:16:42.631Z,13.7
2016-06-15T00:20:01.530Z,13.7
2016-06-15T00:23:06.059Z,13.7
2016-06-15T00:26:18.051Z,13.7
2016-06-15T00:29:33.968Z,13.7
2016-06-15T00:32:47.914Z,13.6
2016-06-15T00:36:01.767Z,13.6
2016-06-15T00:39:15.920Z,13.6
2016-06-15T00:42:30.289Z,13.6
2016-06-15T00:45:48.579Z,13.7
2016-06-15T00:49:03.510Z,13.7
2016-06-15T00:52:08.022Z,13.7
2016-06-15T00:55:21.938Z,13.7
2016-06-15T00:58:35.963Z,13.7
2016-06-15T01:01:50.377Z,13.6
2016-06-15T01:05:05.048Z,13.6
2016-06-15T01:08:18.932Z,13.6
2016-06-15T01:11:32.942Z,13.7
2016-06-15T01:14:46.724Z,13.7
2016-06-15T01:18:00.863Z,13.7
2016-06-15T01:21:15.145Z,13.6
2016-06-15T01:24:29.296Z,13.6
2016-06-15T01:27:43.415Z,13.6
2016-06-15T01:31:02.579Z,13.6
2016-06-15T01:34:07.044Z,13.6
2016-06-15T01:37:21.164Z,13.5
2016-06-15T01:40:35.345Z,13.5
2016-06-15T01:43:49.775Z,13.5
2016-06-15T01:47:03.722Z,13.5
2016-06-15T01:50:17.922Z,13.5
2016-06-15T01:53:31.838Z,13.4
2016-06-15T01:56:45.894Z,13.3
2016-06-15T02:00:04.669Z,13.3
2016-06-15T02:03:08.994Z,13.3
2016-06-15T02:06:23.112Z,13.2
2016-06-15T02:09:37.371Z,13.2
2016-06-15T02:12:56.569Z,13.1
2016-06-15T02:16:00.984Z,13.1
2016-06-15T02:19:14.777Z,13
2016-06-15T02:22:28.678Z,13
2016-06-15T02:25:42.858Z,12.9
2016-06-15T02:29:01.946Z,12.9
2016-06-15T02:32:06.235Z,12.9
2016-06-15T02:35:20.185Z,12.8
2016-06-15T02:38:31.944Z,12.8
2016-06-15T02:41:45.845Z,12.8
2016-06-15T02:45:04.823Z,12.7
2016-06-15T02:48:09.116Z,12.7
2016-06-15T02:51:23.016Z,12.7
2016-06-15T02:54:37.119Z,12.7
2016-06-15T02:57:51.081Z,12.7
2016-06-15T03:01:05.075Z,12.7
2016-06-15T03:04:19.431Z,12.7
2016-06-15T03:07:33.519Z,12.6
2016-06-15T03:10:47.417Z,12.6
2016-06-15T03:14:01.396Z,12.7
2016-06-15T03:17:15.425Z,12.7
2016-06-15T03:20:29.089Z,12.7
2016-06-15T03:23:40.583Z,12.8
2016-06-15T03:26:58.905Z,12.8
2016-06-15T03:30:03.242Z,12.9
2016-06-15T03:33:17.379Z,12.9
2016-06-15T03:36:31.186Z,12.9
2016-06-15T03:39:45.070Z,12.9
2016-06-15T03:43:04.407Z,12.9
2016-06-15T03:46:08.935Z,12.9
2016-06-15T03:49:22.851Z,12.9
2016-06-15T03:52:37.078Z,12.9
2016-06-15T03:55:56.260Z,13
2016-06-15T03:59:05.520Z,13
2016-06-15T04:02:09.343Z,13
2016-06-15T04:05:23.119Z,13.1
2016-06-15T04:08:36.721Z,13.1
2016-06-15T04:11:50.496Z,13.2
2016-06-15T04:15:04.333Z,13.3
2016-06-15T04:18:18.534Z,13.4
2016-06-15T04:21:32.699Z,13.5
2016-06-15T04:24:46.756Z,13.6
2016-06-15T04:28:02.858Z,13.7
2016-06-15T04:31:07.164Z,13.8
2016-06-15T04:34:21.395Z,13.9
2016-06-15T04:37:35.467Z,13.9
2016-06-15T04:40:49.742Z,14
2016-06-15T04:44:03.907Z,14.1
2016-06-15T04:47:17.934Z,14.2
2016-06-15T04:50:33.007Z,14.2
2016-06-15T04:53:46.656Z,14.3
2016-06-15T04:57:05.853Z,14.3
2016-06-15T05:00:10.300Z,14.3
2016-06-15T05:03:23.469Z,14.3
2016-06-15T05:06:36.868Z,14.3
2016-06-15T05:09:50.799Z,14.4
2016-06-15T05:13:05.231Z,14.5
2016-06-15T05:16:19.368Z,14.5
2016-06-15T05:19:33.737Z,14.6
2016-06-15T05:22:48.136Z,14.8
2016-06-15T05:26:02.474Z,15.1
2016-06-15T05:29:16.924Z,15.3
2016-06-15T05:32:31.229Z,15.4
2016-06-15T05:35:45.646Z,15.4
2016-06-15T05:39:05.029Z,15.4
2016-06-15T05:42:09.523Z,15.4
2016-06-15T05:45:27.848Z,15.3
2016-06-15T05:48:37.733Z,15.2
2016-06-15T05:51:56.694Z,15.2
2016-06-15T05:55:05.969Z,15.2
2016-06-15T05:58:09.775Z,15.3
2016-06-15T06:01:24.006Z,15.2
2016-06-15T06:04:36.141Z,15.2
2016-06-15T06:07:56.884Z,15.2
2016-06-15T06:11:05.393Z,15.3
2016-06-15T06:14:09.216Z,15.3
2016-06-15T06:17:23.540Z,15.3
2016-06-15T06:20:37.940Z,15.3
2016-06-15T06:23:57.543Z,15.3
2016-06-15T06:27:02.005Z,15.3
2016-06-15T06:30:14.907Z,15.3
2016-06-15T06:33:28.761Z,15.3
2016-06-15T06:36:41.536Z,15.3
2016-06-15T06:40:00.529Z,15.3
2016-06-15T06:43:05.226Z,15.3
2016-06-15T06:46:19.300Z,15.3
2016-06-15T06:49:30.982Z,15.4
2016-06-15T06:52:43.944Z,15.4
2016-06-15T06:56:03.314Z,15.4
2016-06-15T06:59:07.322Z,15.5
2016-06-15T07:02:21.444Z,15.5
2016-06-15T07:05:35.328Z,15.5
2016-06-15T07:08:49.665Z,15.4
2016-06-15T07:12:02.503Z,15.4
2016-06-15T07:15:16.453Z,15.3
2016-06-15T07:18:30.384Z,15.3
2016-06-15T07:21:41.706Z,15.2
2016-06-15T07:25:00.636Z,15.2
2016-06-15T07:28:04.849Z,15.2
2016-06-15T07:31:18.924Z,15.2
2016-06-15T07:34:33.136Z,15.1
2016-06-15T07:37:47.348Z,15.2
2016-06-15T07:41:01.670Z,15.2
2016-06-15T07:44:15.870Z,15.2
2016-06-15T07:47:30.301Z,15.3
2016-06-15T07:50:44.653Z,15.3
2016-06-15T07:54:04.225Z,15.3
2016-06-15T07:57:09.079Z,15.3
2016-06-15T08:00:23.403Z,15.4
2016-06-15T08:03:37.787Z,15.4
2016-06-15T08:06:57.313Z,15.5
2016-06-15T08:10:01.962Z,15.5
2016-06-15T08:13:16.412Z,15.5
2016-06-15T08:16:30.500Z,15.6
2016-06-15T08:19:44.883Z,15.7
2016-06-15T08:23:06.064Z,15.7
2016-06-15T08:26:08.855Z,15.7
2016-06-15T08:29:22.727Z,15.7
2016-06-15T08:32:36.940Z,15.7
2016-06-15T08:35:51.292Z,15.7
2016-06-15T08:39:05.644Z,15.7
2016-06-15T08:42:19.907Z,15.7
2016-06-15T08:45:34.308Z,15.7
2016-06-15T08:48:48.628Z,15.6
2016-06-15T08:52:02.575Z,15.5
2016-06-15T08:55:16.569Z,15.3
2016-06-15T08:58:30.659Z,15.2
2016-06-15T09:01:44.951Z,15
2016-06-15T09:05:04.038Z,15
2016-06-15T09:08:08.625Z,14.9
2016-06-15T09:11:20.634Z,14.9
2016-06-15T09:20:59.409Z,14.8
2016-06-15T09:24:03.948Z,14.8
2016-06-15T09:27:18.380Z,14.8
2016-06-15T09:30:32.477Z,14.9
2016-06-15T09:33:46.815Z,14.8
2016-06-15T09:37:04.670Z,14.9
2016-06-15T09:40:09.196Z,14.8
2016-06-15T09:43:23.439Z,14.8
2016-06-15T09:46:37.792Z,14.8
2016-06-15T09:49:57.257Z,14.8
2016-06-15T09:53:02.486Z,14.8
2016-06-15T09:56:16.651Z,14.8
2016-06-15T09:59:28.801Z,14.8
2016-06-15T10:02:43.184Z,14.8
2016-06-15T10:06:02.780Z,14.8
2016-06-15T10:09:07.475Z,14.9
2016-06-15T10:12:21.949Z,14.9
2016-06-15T10:15:34.582Z,15
2016-06-15T10:18:48.169Z,15
2016-06-15T10:22:02.707Z,15
2016-06-15T10:25:17.251Z,15
2016-06-15T10:28:31.527Z,15
2016-06-15T10:31:46.005Z,15.1
2016-06-15T10:35:05.379Z,15.1
2016-06-15T10:38:10.013Z,15.2
2016-06-15T10:44:38.391Z,15.3
2016-06-15T10:51:02.801Z,15.5
2016-06-15T10:54:21.891Z,15.6
2016-06-15T10:57:30.853Z,15.7
2016-06-15T11:00:43.316Z,15.8
2016-06-15T11:04:04.684Z,15.8
2016-06-15T11:07:09.491Z,15.8
2016-06-15T11:10:23.565Z,15.9
2016-06-15T11:13:37.684Z,15.9
2016-06-15T11:16:57.115Z,15.9
2016-06-15T11:20:01.843Z,16
2016-06-15T11:23:16.339Z,16.1
2016-06-15T11:26:30.740Z,16
2016-06-15T11:29:45.155Z,16
2016-06-15T11:33:01.883Z,16.1
2016-06-15T11:36:06.565Z,16
2016-06-15T11:39:20.763Z,16
2016-06-15T11:42:35.320Z,16
2016-06-15T11:45:49.829Z,15.9
2016-06-15T11:49:04.135Z,16
2016-06-15T11:52:18.195Z,16
2016-06-15T11:55:32.453Z,16
2016-06-15T11:58:46.963Z,16
2016-06-15T12:02:06.363Z,16.1
2016-06-15T12:05:11.107Z,16
2016-06-15T12:08:25.384Z,16
2016-06-15T12:11:39.831Z,15.9
2016-06-15T12:14:58.935Z,15.8
2016-06-15T12:18:03.490Z,15.7
2016-06-15T12:21:18.081Z,15.8
2016-06-15T12:24:32.496Z,15.8
2016-06-15T12:27:46.708Z,15.9
2016-06-15T12:31:06.265Z,16
2016-06-15T12:34:11.007Z,16.1
2016-06-15T12:37:25.255Z,16.1
2016-06-15T12:40:39.546Z,16.1
2016-06-15T12:43:58.835Z,16.1
2016-06-15T12:47:03.517Z,15.9
2016-06-15T12:50:17.729Z,15.6
2016-06-15T12:53:32.069Z,15.5
2016-06-15T12:56:46.422Z,15.5
2016-06-15T13:00:03.901Z,15.5
2016-06-15T13:03:08.504Z,15.6
2016-06-15T13:06:22.922Z,15.5
2016-06-15T13:09:37.229Z,15.7
2016-06-15T13:12:51.644Z,15.9
2016-06-15T13:16:06.106Z,16.1
2016-06-15T13:19:20.556Z,16.2
2016-06-15T13:22:35.643Z,16.1
2016-06-15T13:25:48.996Z,16.2
2016-06-15T13:29:03.333Z,16.1
2016-06-15T13:32:17.733Z,16
2016-06-15T13:35:32.183Z,15.9
2016-06-15T13:38:46.568Z,16
2016-06-15T13:42:06.077Z,16
2016-06-15T13:45:10.790Z,16
2016-06-15T13:48:25.174Z,16.1
2016-06-15T13:51:39.685Z,16.2
2016-06-15T13:54:58.929Z,16.4
2016-06-15T13:58:03.719Z,16.4
2016-06-15T14:01:17.932Z,16.5
2016-06-15T14:04:32.507Z,16.6
2016-06-15T14:07:47.188Z,16.7
2016-06-15T14:11:06.384Z,16.7
2016-06-15T14:14:11.018Z,16.7
2016-06-15T14:17:25.560Z,16.8
2016-06-15T14:20:40.040Z,16.8
2016-06-15T14:23:57.987Z,16.7
2016-06-15T14:27:02.480Z,16.8
2016-06-15T14:30:16.912Z,16.8
2016-06-15T14:33:31.034Z,16.8
2016-06-15T14:36:45.480Z,16.8
2016-06-15T14:40:05.036Z,16.7
2016-06-15T14:43:09.686Z,16.5
2016-06-15T14:46:23.836Z,16.5
2016-06-15T14:49:38.145Z,16.3
2016-06-15T14:52:57.904Z,16.3
2016-06-15T14:56:02.195Z,16.4
2016-06-15T14:59:16.564Z,16.4
2016-06-15T15:02:30.776Z,16.5
2016-06-15T15:05:45.100Z,16.5
2016-06-15T15:09:04.219Z,16.6
2016-06-15T15:12:08.916Z,16.7
2016-06-15T15:15:23.253Z,16.8
2016-06-15T15:18:37.579Z,16.8
2016-06-15T15:21:51.838Z,16.8
2016-06-15T15:25:06.284Z,16.8
2016-06-15T15:28:21.028Z,16.7
2016-06-15T15:31:35.447Z,16.5
2016-06-15T15:34:49.612Z,16.5
2016-06-15T15:38:04.027Z,16.5
2016-06-15T15:41:18.240Z,16.4
2016-06-15T15:44:32.358Z,16.3
2016-06-15T15:47:46.651Z,16.4
2016-06-15T15:51:06.004Z,16.4
2016-06-15T15:54:11.264Z,16.4
2016-06-15T15:57:25.070Z,16.5
2016-06-15T16:00:39.426Z,16.4
2016-06-15T16:03:58.576Z,16.4
2016-06-15T16:07:03.257Z,16.3
2016-06-15T16:10:17.766Z,16.4
2016-06-15T16:13:32.353Z,16.4
2016-06-15T16:16:46.850Z,16.5
2016-06-15T16:20:06.281Z,16.5
2016-06-15T16:23:10.822Z,16.5
2016-06-15T16:26:25.143Z,16.4
2016-06-15T16:29:39.312Z,16.4
2016-06-15T16:32:58.493Z,16.3
2016-06-15T16:36:03.049Z,16.3
2016-06-15T16:39:17.559Z,16.3
2016-06-15T16:42:31.770Z,16.3
2016-06-15T16:45:46.283Z,16.2
2016-06-15T16:49:05.527Z,16.2
2016-06-15T16:52:10.161Z,16.3
2016-06-15T16:55:24.482Z,16.3
2016-06-15T16:58:38.854Z,16.3
2016-06-15T17:01:58.098Z,16.2
2016-06-15T17:05:02.795Z,16.2
2016-06-15T17:08:21.429Z,16.2
2016-06-15T17:11:31.812Z,16.2
2016-06-15T17:14:46.200Z,16.2
2016-06-15T17:18:05.413Z,16.2
2016-06-15T17:21:10.125Z,16.2
2016-06-15T17:24:24.572Z,16.2
2016-06-15T17:27:39.003Z,16.2
2016-06-15T17:30:58.297Z,16.2
2016-06-15T17:34:03.103Z,16.2
2016-06-15T17:37:17.283Z,16.1
2016-06-15T17:40:31.886Z,16.1
2016-06-15T17:43:46.055Z,16
2016-06-15T17:47:02.705Z,15.9
2016-06-15T17:50:07.261Z,15.6
2016-06-15T17:53:21.380Z,15
2016-06-15T17:56:35.451Z,14.5
2016-06-15T17:59:49.510Z,14.1
2016-06-15T18:03:06.222Z,13.8
2016-06-15T18:06:10.514Z,13.5
2016-06-15T18:09:24.491Z,13.2
2016-06-15T18:12:38.516Z,13.1
2016-06-15T18:15:57.326Z,12.8
2016-06-15T18:19:06.710Z,12.7
2016-06-15T18:22:10.969Z,12.7
2016-06-15T18:25:24.822Z,12.6
2016-06-15T18:28:38.972Z,12.5
2016-06-15T18:31:57.797Z,12.5
2016-06-15T18:35:07.086Z,12.4
2016-06-15T18:38:11.409Z,12.4
2016-06-15T18:41:25.372Z,12.3
2016-06-15T18:44:39.271Z,12.4
2016-06-15T18:47:58.299Z,12.4
2016-06-15T18:51:00.730Z,12.5
2016-06-15T18:54:16.693Z,12.5
2016-06-15T18:57:30.467Z,12.5
2016-06-15T19:00:44.620Z,12.5
2016-06-15T19:04:01.426Z,12.5
2016-06-15T19:07:05.701Z,12.6
2016-06-15T19:10:19.626Z,12.5
2016-06-15T19:13:33.417Z,12.5
2016-06-15T19:16:47.052Z,12.5
2016-06-15T19:20:05.402Z,12.5
2016-06-15T19:23:09.599Z,12.5
2016-06-15T19:26:23.151Z,12.5
2016-06-15T19:29:34.322Z,12.5
2016-06-15T19:32:48.291Z,12.5
2016-06-15T19:36:04.130Z,12.5
2016-06-15T19:39:08.204Z,12.5
2016-06-15T19:42:22.135Z,12.5
2016-06-15T19:45:36.128Z,12.5
2016-06-15T19:48:53.749Z,12.4
2016-06-15T19:52:07.056Z,12.5
2016-06-15T19:55:11.268Z,12.5
2016-06-15T19:58:22.732Z,12.5
2016-06-15T20:01:36.240Z,12.5
2016-06-15T20:04:50.221Z,12.5
2016-06-15T20:08:04.371Z,12.5
2016-06-15T20:11:18.052Z,12.5
2016-06-15T20:14:32.359Z,12.4
2016-06-15T20:17:45.836Z,12.4
2016-06-15T20:21:04.833Z,12.4
2016-06-15T20:24:09.061Z,12.4
2016-06-15T20:27:22.929Z,12.4
2016-06-15T20:30:36.345Z,12.4
2016-06-15T20:33:50.451Z,12.4
2016-06-15T20:37:04.522Z,12.3
2016-06-15T20:40:18.189Z,12.3
2016-06-15T20:43:31.385Z,12.3
2016-06-15T20:46:45.269Z,12.3
2016-06-15T20:50:03.891Z,12.3
2016-06-15T20:53:08.150Z,12.3
2016-06-15T20:56:21.987Z,12.3
2016-06-15T20:59:35.715Z,12.3
2016-06-15T21:02:46.444Z,12.3
2016-06-15T21:06:02.549Z,12.3
2016-06-15T21:09:06.825Z,12.2
2016-06-15T21:12:20.474Z,12.2
2016-06-15T21:15:32.374Z,12.2
2016-06-15T21:18:45.945Z,12.2
2016-06-15T21:22:04.974Z,12.2
2016-06-15T21:25:09.092Z,12.2
2016-06-15T21:28:23.086Z,12.2
2016-06-15T21:31:36.814Z,12.2
2016-06-15T21:34:50.873Z,12.2
2016-06-15T21:38:04.773Z,12.1
2016-06-15T21:41:18.641Z,12.1
2016-06-15T21:44:32.588Z,12.1
2016-06-15T21:47:46.050Z,12.1
2016-06-15T21:51:02.079Z,12.1
2016-06-15T21:54:06.259Z,12.1
2016-06-15T21:57:20.018Z,12.1
2016-06-15T22:00:33.434Z,12.1
2016-06-15T22:03:47.147Z,12.1
2016-06-15T22:07:06.143Z,12
2016-06-15T22:10:10.199Z,12
2016-06-15T22:13:23.536Z,12
2016-06-15T22:16:37.156Z,12
2016-06-15T22:19:50.930Z,11.9
2016-06-15T22:23:04.833Z,11.9
2016-06-15T22:26:18.732Z,11.9
2016-06-15T22:29:32.430Z,11.8
2016-06-15T22:32:46.173Z,11.8
2016-06-15T22:36:04.795Z,11.8
2016-06-15T22:39:08.960Z,11.8
2016-06-15T22:42:20.750Z,11.7
2016-06-15T22:45:33.166Z,11.7
2016-06-15T22:48:47.019Z,11.7
2016-06-15T22:52:05.750Z,11.7
2016-06-15T22:55:09.557Z,11.7
2016-06-15T22:58:23.378Z,11.6
2016-06-15T23:01:37.044Z,11.6
2016-06-15T23:04:50.459Z,11.6
2016-06-15T23:08:08.205Z,11.6
2016-06-15T23:11:17.652Z,11.5
2016-06-15T23:14:31.334Z,11.5
2016-06-15T23:17:44.077Z,11.5
2016-06-15T23:21:02.683Z,11.5
2016-06-15T23:24:06.505Z,11.5
2016-06-15T23:27:20.405Z,11.4
2016-06-15T23:30:34.758Z,11.4
2016-06-15T23:33:48.939Z,11.4
2016-06-15T23:37:03.264Z,11.4
2016-06-15T23:40:17.664Z,11.4
2016-06-15T23:43:31.594Z,11.3
2016-06-15T23:46:44.119Z,11.3
2016-06-15T23:50:03.397Z,11.3
2016-06-15T23:53:05.437Z,11.3
2016-06-15T23:56:21.556Z,11.3
2016-06-15T23:59:35.535Z,11.2
